Terminal Aerodrome Forecast
Issued by NWS Jacksonville, FL

Home | Current Version | Previous Version | Text Only | Print | Product List | Glossary On
Versions: 1 2 3 4 5 6 7 8 9 10 11 12 13
312
FTUS42 KJAX 262330
TAFGNV
TAF
KGNV 262330Z 2700/2724 04007KT P6SM FEW050 BKN200
     FM270200 VRB04KT P6SM BKN250
     FM270900 00000KT 4SM BR FEW015
      TEMPO 2709/2713 2SM BR BKN012
     FM271300 29005KT P6SM FEW025 SCT040
     FM272000 27007KT P6SM VCTS SCT040CB OVC200 PROB30 2720/2724
      -TSRA SCT020 BKN040CB=

USA.gov is the U.S. government's official web portal to all federal, state and local government web resources and services.